Ole-arvid Nergaard — LLAY — position and weather

sailwx.info

Track history (hours):
 
Tides and Currents Weather Stations Pressure Air Temp Water Temp Dewpoint Dewpoint Depression Visibility Wind Speed Wind Dir Waves Ship Positions

Ole-arvid Nergaard

Last reported at 2016-Feb-13 01:34 UTC. Time now 2016-Feb-14 14:32 UTC.
Position N 63°29' E 009°00'.

Length 55 m; draft 7.2 m.

Type: Fishing. MMSI: 259656000.

Date/timePositionNaut miles runAvg speedWind from/ knotsBaromVisibWave heightAir tempDewpointWater temp
2016-Feb-13 01:34N 63°29' E 009°00'1010.1
2016-Feb-13 00:33N 63°36' E 009°16'7811.1
2016-Feb-12 17:33N 64°42' E 010°52'1211.6
2016-Feb-12 16:34N 64°50' E 011°11'1111.5
2016-Feb-12 15:34N 64°60' E 011°27'1110.8
2016-Feb-12 14:34N 65°06' E 011°48'1111.3
2016-Feb-12 13:34N 65°17' E 011°57'5710.8
2016-Feb-12 08:18N 66°09' E 012°49'911.6
2016-Feb-12 07:31N 66°18' E 012°56'1111.4
2016-Feb-12 06:33N 66°29' E 012°59'1410.6
2016-Feb-12 05:13N 66°42' E 013°09'811.5
2016-Feb-12 04:34N 66°49' E 013°16'1110.5
2016-Feb-12 03:34N 66°58' E 013°31'1111.3
2016-Feb-12 02:34N 67°04' E 013°54'1211.6
2016-Feb-12 01:33N 67°15' E 014°09'1211.7
2016-Feb-12 00:34N 67°24' E 014°26'1111.1
2016-Feb-11 23:34N 67°35' E 014°19'1110.8
2016-Feb-11 22:32N 67°46' E 014°17'107 5.4
2016-Feb-11 02:33N 69°23' E 016°24'  
2016-Feb-06 08:27N 72°08' E 025°27'3 3.3
2016-Feb-06 07:34N 72°07' E 025°35'3 2.5
2016-Feb-06 06:33N 72°04' E 025°35'4 3.9
2016-Feb-06 05:33N 72°03' E 025°23'4 4.0
2016-Feb-06 04:34N 72°02' E 025°11'1 0.6
2016-Feb-06 03:34N 72°02' E 025°09'2 1.5
2016-Feb-06 02:33N 72°03' E 025°04'3 0.9
2016-Feb-05 23:22N 72°02' E 025°13'3 3.6
2016-Feb-05 22:33N 72°03' E 025°22'4 3.7
2016-Feb-05 21:34N 72°04' E 025°33'4 3.9
2016-Feb-05 20:34N 72°06' E 025°45'4 4.1
2016-Feb-05 19:33N 72°07' E 025°57'1 1.3
2016-Feb-05 18:34N 72°07' E 026°02'1 0.8
2016-Feb-05 17:34N 72°07' E 025°59'2 1.7
2016-Feb-05 16:34N 72°06' E 025°54'3 2.7
2016-Feb-05 15:34N 72°06' E 025°45'3 3.4
2016-Feb-05 14:34N 72°05' E 025°35'2 2.2
2016-Feb-05 13:34N 72°05' E 025°42'4 4.1
2016-Feb-05 12:34N 72°06' E 025°54'4 4.0
2016-Feb-05 11:34N 72°08' E 026°06'1 0.7
2016-Feb-05 10:34N 72°08' E 026°08'4 4.0
2016-Feb-05 09:34N 72°06' E 025°56'4 4.4
2016-Feb-05 08:34N 72°05' E 025°42'4 4.3
2016-Feb-05 07:34N 72°04' E 025°29'2 2.1
2016-Feb-05 06:34N 72°02' E 025°25'3 3.1
2016-Feb-05 05:34N 72°02' E 025°35'4 3.6
2016-Feb-05 04:34N 72°03' E 025°47'4 3.9
2016-Feb-05 03:33N 72°05' E 025°58'4 3.7
2016-Feb-05 02:34N 72°07' E 026°08'4 4.0
2016-Feb-05 01:34N 72°09' E 026°19'1 0.5
2016-Feb-05 00:34N 72°09' E 026°17'4 3.6
2016-Feb-04 23:34N 72°06' E 026°10'4 3.6
2016-Feb-04 22:33N 72°03' E 026°02'4 3.9
2016-Feb-04 21:34N 72°02' E 025°51'4 3.9
2016-Feb-04 20:34N 72°01' E 025°39'4 3.9
2016-Feb-04 19:34N 71°60' E 025°27'2 1.9
2016-Feb-04 18:34N 72°01' E 025°21'2 1.6
2016-Feb-04 17:34N 72°01' E 025°26'4 3.9
2016-Feb-04 16:33N 72°02' E 025°39'4 3.7
2016-Feb-04 15:33N 72°03' E 025°50'4 4.1
2016-Feb-04 14:34N 72°04' E 026°03'4 4.1
2016-Feb-04 13:34N 72°05' E 026°16'4 3.6
2016-Feb-04 12:33N 72°06' E 026°27'3 2.8
2016-Feb-04 11:34N 72°05' E 026°18'3 3.0
2016-Feb-04 10:34N 72°04' E 026°09'4 3.6
2016-Feb-04 09:33N 72°03' E 025°58'4 3.9
2016-Feb-04 08:34N 72°02' E 025°46'4 3.9
2016-Feb-04 07:34N 72°01' E 025°34'2 1.9
2016-Feb-04 06:34N 72°00' E 025°28'1 1.0
2016-Feb-04 05:33N 72°01' E 025°25'1 0.8
2016-Feb-04 04:34N 72°00' E 025°27'4 3.7
2016-Feb-04 03:34N 72°01' E 025°38'4 3.6
2016-Feb-04 02:34N 72°03' E 025°49'4 4.1
2016-Feb-04 01:34N 72°04' E 026°02'4 4.0
2016-Feb-04 00:34N 72°05' E 026°15'4 4.4
2016-Feb-03 23:33N 72°06' E 026°29'2 2.1
2016-Feb-03 22:34N 72°04' E 026°25'3 3.4
2016-Feb-03 21:33N 72°01' E 026°25'4 3.5
2016-Feb-03 20:34N 71°58' E 026°33'2 2.5
2016-Feb-03 19:34N 71°57' E 026°41'4 3.7
2016-Feb-03 18:33N 71°60' E 026°31'2 1.7
2016-Feb-03 17:34N 72°00' E 026°26'3 2.6
2016-Feb-03 16:34N 71°60' E 026°34'3 2.5
2016-Feb-03 15:32N 72°00' E 026°43'3 3.2
2016-Feb-03 14:31N 72°00' E 026°53'2 1.7
2016-Feb-03 13:34N 71°59' E 026°51'4 3.9
2016-Feb-03 12:33N 71°58' E 026°39'4 4.1
2016-Feb-03 11:34N 71°60' E 026°28'1 0.6
2016-Feb-03 10:33N 71°59' E 026°29'4 4.3
2016-Feb-03 09:33N 71°57' E 026°41'3 3.2
2016-Feb-03 08:34N 71°59' E 026°49'3 3.1
2016-Feb-03 07:34N 72°02' E 026°54'2 0.8
2016-Feb-03 04:33N 71°60' E 026°50'1 1.4
2016-Feb-03 03:33N 71°58' E 026°51'  
Track history (hours):
 
Tides and Currents Weather Stations Pressure Air Temp Water Temp Dewpoint Dewpoint Depression Visibility Wind Speed Wind Dir Waves Ship Positions

Ole-arvid Nergaard

Last reported at 2016-Feb-13 01:34 UTC. Time now 2016-Feb-14 14:32 UTC.
Position N 63°29' E 009°00'.

Length 55 m; draft 7.2 m.

Type: Fishing. MMSI: 259656000.

Date/timePositionNaut miles runAvg speedWind from/ knotsBaromVisibWave heightAir tempDewpointWater temp
2016-Feb-13 01:34N 63°29' E 009°00'1010.1
2016-Feb-13 00:33N 63°36' E 009°16'7811.1
2016-Feb-12 17:33N 64°42' E 010°52'1211.6
2016-Feb-12 16:34N 64°50' E 011°11'1111.5
2016-Feb-12 15:34N 64°60' E 011°27'1110.8
2016-Feb-12 14:34N 65°06' E 011°48'1111.3
2016-Feb-12 13:34N 65°17' E 011°57'5710.8
2016-Feb-12 08:18N 66°09' E 012°49'911.6
2016-Feb-12 07:31N 66°18' E 012°56'1111.4
2016-Feb-12 06:33N 66°29' E 012°59'1410.6
2016-Feb-12 05:13N 66°42' E 013°09'811.5
2016-Feb-12 04:34N 66°49' E 013°16'1110.5
2016-Feb-12 03:34N 66°58' E 013°31'1111.3
2016-Feb-12 02:34N 67°04' E 013°54'1211.6
2016-Feb-12 01:33N 67°15' E 014°09'1211.7
2016-Feb-12 00:34N 67°24' E 014°26'1111.1
2016-Feb-11 23:34N 67°35' E 014°19'1110.8
2016-Feb-11 22:32N 67°46' E 014°17'107 5.4
2016-Feb-11 02:33N 69°23' E 016°24'  
2016-Feb-06 08:27N 72°08' E 025°27'3 3.3
2016-Feb-06 07:34N 72°07' E 025°35'3 2.5
2016-Feb-06 06:33N 72°04' E 025°35'4 3.9
2016-Feb-06 05:33N 72°03' E 025°23'4 4.0
2016-Feb-06 04:34N 72°02' E 025°11'1 0.6
2016-Feb-06 03:34N 72°02' E 025°09'2 1.5
2016-Feb-06 02:33N 72°03' E 025°04'3 0.9
2016-Feb-05 23:22N 72°02' E 025°13'3 3.6
2016-Feb-05 22:33N 72°03' E 025°22'4 3.7
2016-Feb-05 21:34N 72°04' E 025°33'4 3.9
2016-Feb-05 20:34N 72°06' E 025°45'4 4.1
2016-Feb-05 19:33N 72°07' E 025°57'1 1.3
2016-Feb-05 18:34N 72°07' E 026°02'1 0.8
2016-Feb-05 17:34N 72°07' E 025°59'2 1.7
2016-Feb-05 16:34N 72°06' E 025°54'3 2.7
2016-Feb-05 15:34N 72°06' E 025°45'3 3.4
2016-Feb-05 14:34N 72°05' E 025°35'2 2.2
2016-Feb-05 13:34N 72°05' E 025°42'4 4.1
2016-Feb-05 12:34N 72°06' E 025°54'4 4.0
2016-Feb-05 11:34N 72°08' E 026°06'1 0.7
2016-Feb-05 10:34N 72°08' E 026°08'4 4.0
2016-Feb-05 09:34N 72°06' E 025°56'4 4.4
2016-Feb-05 08:34N 72°05' E 025°42'4 4.3
2016-Feb-05 07:34N 72°04' E 025°29'2 2.1
2016-Feb-05 06:34N 72°02' E 025°25'3 3.1
2016-Feb-05 05:34N 72°02' E 025°35'4 3.6
2016-Feb-05 04:34N 72°03' E 025°47'4 3.9
2016-Feb-05 03:33N 72°05' E 025°58'4 3.7
2016-Feb-05 02:34N 72°07' E 026°08'4 4.0
2016-Feb-05 01:34N 72°09' E 026°19'1 0.5
2016-Feb-05 00:34N 72°09' E 026°17'4 3.6
2016-Feb-04 23:34N 72°06' E 026°10'4 3.6
2016-Feb-04 22:33N 72°03' E 026°02'4 3.9
2016-Feb-04 21:34N 72°02' E 025°51'4 3.9
2016-Feb-04 20:34N 72°01' E 025°39'4 3.9
2016-Feb-04 19:34N 71°60' E 025°27'2 1.9
2016-Feb-04 18:34N 72°01' E 025°21'2 1.6
2016-Feb-04 17:34N 72°01' E 025°26'4 3.9
2016-Feb-04 16:33N 72°02' E 025°39'4 3.7
2016-Feb-04 15:33N 72°03' E 025°50'4 4.1
2016-Feb-04 14:34N 72°04' E 026°03'4 4.1
2016-Feb-04 13:34N 72°05' E 026°16'4 3.6
2016-Feb-04 12:33N 72°06' E 026°27'3 2.8
2016-Feb-04 11:34N 72°05' E 026°18'3 3.0
2016-Feb-04 10:34N 72°04' E 026°09'4 3.6
2016-Feb-04 09:33N 72°03' E 025°58'4 3.9
2016-Feb-04 08:34N 72°02' E 025°46'4 3.9
2016-Feb-04 07:34N 72°01' E 025°34'2 1.9
2016-Feb-04 06:34N 72°00' E 025°28'1 1.0
2016-Feb-04 05:33N 72°01' E 025°25'1 0.8
2016-Feb-04 04:34N 72°00' E 025°27'4 3.7
2016-Feb-04 03:34N 72°01' E 025°38'4 3.6
2016-Feb-04 02:34N 72°03' E 025°49'4 4.1
2016-Feb-04 01:34N 72°04' E 026°02'4 4.0
2016-Feb-04 00:34N 72°05' E 026°15'4 4.4
2016-Feb-03 23:33N 72°06' E 026°29'2 2.1
2016-Feb-03 22:34N 72°04' E 026°25'3 3.4
2016-Feb-03 21:33N 72°01' E 026°25'4 3.5
2016-Feb-03 20:34N 71°58' E 026°33'2 2.5
2016-Feb-03 19:34N 71°57' E 026°41'4 3.7
2016-Feb-03 18:33N 71°60' E 026°31'2 1.7
2016-Feb-03 17:34N 72°00' E 026°26'3 2.6
2016-Feb-03 16:34N 71°60' E 026°34'3 2.5
2016-Feb-03 15:32N 72°00' E 026°43'3 3.2
2016-Feb-03 14:31N 72°00' E 026°53'2 1.7
2016-Feb-03 13:34N 71°59' E 026°51'4 3.9
2016-Feb-03 12:33N 71°58' E 026°39'4 4.1
2016-Feb-03 11:34N 71°60' E 026°28'1 0.6
2016-Feb-03 10:33N 71°59' E 026°29'4 4.3
2016-Feb-03 09:33N 71°57' E 026°41'3 3.2
2016-Feb-03 08:34N 71°59' E 026°49'3 3.1
2016-Feb-03 07:34N 72°02' E 026°54'2 0.8
2016-Feb-03 04:33N 71°60' E 026°50'1 1.4
2016-Feb-03 03:33N 71°58' E 026°51'  

Dump ship's entire track history